createdAt,value
2022-12-11T00:01:14.502Z,50.72
2022-12-11T00:03:42.898Z,50.52
2022-12-11T00:06:14.281Z,51.00
2022-12-11T00:08:43.167Z,50.96
2022-12-11T00:11:16.486Z,51.19
2022-12-11T00:13:45.317Z,51.12
2022-12-11T00:16:15.629Z,50.33
2022-12-11T00:18:44.509Z,50.59
2022-12-11T00:21:14.460Z,50.37
2022-12-11T00:23:42.941Z,49.85
2022-12-11T00:26:16.099Z,50.06
2022-12-11T00:28:45.229Z,49.96
2022-12-11T00:31:18.697Z,50.10
2022-12-11T00:33:50.614Z,49.93
2022-12-11T00:36:21.930Z,49.96
2022-12-11T00:38:51.286Z,50.06
2022-12-11T00:41:20.407Z,50.12
2022-12-11T00:43:48.918Z,50.21
2022-12-11T00:46:17.644Z,50.11
2022-12-11T00:48:46.378Z,50.10
2022-12-11T00:51:14.833Z,50.26
2022-12-11T00:53:44.102Z,50.50
2022-12-11T00:56:15.111Z,50.30
2022-12-11T00:58:43.805Z,50.53
2022-12-11T01:01:15.450Z,50.66
2022-12-11T01:03:43.851Z,50.46
2022-12-11T01:06:15.083Z,50.04
2022-12-11T01:08:45.065Z,50.18
2022-12-11T01:11:16.480Z,50.00
2022-12-11T01:13:45.383Z,49.93
2022-12-11T01:16:16.015Z,50.20
2022-12-11T01:18:44.528Z,49.90
2022-12-11T01:21:13.979Z,49.99
2022-12-11T01:23:42.377Z,50.03
2022-12-11T01:26:13.120Z,50.33
2022-12-11T01:28:42.465Z,49.84
2022-12-11T01:31:13.040Z,50.67
2022-12-11T01:33:41.527Z,50.20
2022-12-11T01:36:12.846Z,50.37
2022-12-11T01:38:41.364Z,50.16
2022-12-11T01:41:10.391Z,50.34
2022-12-11T01:44:06.872Z,50.25
2022-12-11T01:46:37.246Z,49.65
2022-12-11T01:49:13.902Z,49.81
2022-12-11T01:51:53.043Z,49.68
2022-12-11T01:54:23.942Z,49.32
2022-12-11T01:56:54.493Z,49.21
2022-12-11T01:59:26.586Z,49.02
2022-12-11T02:02:10.988Z,48.77
2022-12-11T02:04:40.698Z,49.39
2022-12-11T02:07:10.198Z,49.42
2022-12-11T02:09:42.680Z,49.61
2022-12-11T02:12:30.809Z,49.39
2022-12-11T02:15:13.221Z,49.38
2022-12-11T02:17:54.569Z,49.83
2022-12-11T02:20:41.968Z,49.17
2022-12-11T02:23:13.158Z,49.25
2022-12-11T02:26:13.606Z,48.83
2022-12-11T02:28:55.801Z,49.56
2022-12-11T02:31:38.673Z,48.98
2022-12-11T02:34:26.246Z,48.75
2022-12-11T02:36:59.311Z,49.39
2022-12-11T02:39:29.471Z,49.58
2022-12-11T02:41:58.992Z,49.63
2022-12-11T02:44:32.879Z,49.41
2022-12-11T02:47:04.624Z,49.43
2022-12-11T02:49:34.002Z,49.70
2022-12-11T02:52:04.770Z,49.64
2022-12-11T02:54:38.061Z,49.06
2022-12-11T02:57:11.899Z,48.99
2022-12-11T02:59:43.676Z,49.11
2022-12-11T03:02:17.001Z,48.88
2022-12-11T03:04:46.563Z,48.76
2022-12-11T03:07:23.532Z,48.86
2022-12-11T03:09:52.734Z,48.71
2022-12-11T03:12:29.817Z,48.70
2022-12-11T03:15:00.966Z,48.70
2022-12-11T03:18:00.907Z,49.42
2022-12-11T03:20:45.007Z,48.94
2022-12-11T03:23:32.344Z,49.42
2022-12-11T03:26:06.608Z,49.59
2022-12-11T03:28:43.989Z,49.69
2022-12-11T03:31:27.445Z,49.63
2022-12-11T03:34:00.951Z,49.47
2022-12-11T03:36:36.572Z,49.30
2022-12-11T03:39:20.718Z,49.23
2022-12-11T03:41:50.781Z,49.46
2022-12-11T03:44:21.399Z,49.43
2022-12-11T03:46:52.660Z,49.71
2022-12-11T03:49:26.620Z,49.24
2022-12-11T03:51:58.012Z,49.27
2022-12-11T03:54:27.564Z,49.47
2022-12-11T03:56:58.254Z,49.48
2022-12-11T03:59:26.854Z,49.50
2022-12-11T04:01:55.313Z,49.92
2022-12-11T04:04:23.811Z,49.39
2022-12-11T04:06:52.179Z,49.08
2022-12-11T04:09:20.579Z,49.19
2022-12-11T04:11:48.961Z,49.09
2022-12-11T04:14:36.022Z,49.01
2022-12-11T04:17:05.437Z,49.29
2022-12-11T04:19:52.266Z,49.27
2022-12-11T04:22:38.997Z,48.52
2022-12-11T04:25:08.577Z,48.65
2022-12-11T04:27:49.271Z,48.54
2022-12-11T04:30:23.746Z,48.26
2022-12-11T04:32:53.798Z,48.83
2022-12-11T04:35:22.909Z,48.39
2022-12-11T04:37:52.721Z,48.64
2022-12-11T04:40:21.242Z,48.68
2022-12-11T04:42:49.800Z,48.63
2022-12-11T04:45:18.334Z,48.35
2022-12-11T04:47:46.789Z,49.09
2022-12-11T04:50:16.055Z,49.13
2022-12-11T04:52:44.717Z,48.67
2022-12-11T04:55:13.557Z,49.13
2022-12-11T04:57:42.211Z,48.32
2022-12-11T05:00:11.883Z,48.23
2022-12-11T05:02:41.685Z,48.67
2022-12-11T05:05:11.783Z,48.44
2022-12-11T05:07:41.067Z,48.40
2022-12-11T05:10:09.754Z,48.15
2022-12-11T05:12:38.284Z,47.74
2022-12-11T05:15:07.253Z,47.99
2022-12-11T05:17:35.615Z,47.95
2022-12-11T05:20:04.280Z,47.79
2022-12-11T05:22:32.724Z,47.31
2022-12-11T05:25:01.179Z,47.03
2022-12-11T05:27:29.746Z,47.99
2022-12-11T05:29:59.728Z,46.69
2022-12-11T05:32:28.784Z,46.78
2022-12-11T05:34:57.339Z,47.54
2022-12-11T05:37:25.750Z,46.97
2022-12-11T05:39:54.210Z,47.17
2022-12-11T05:42:27.138Z,47.31
2022-12-11T05:44:57.343Z,47.35
2022-12-11T05:47:25.827Z,47.53
2022-12-11T05:49:54.276Z,47.78
2022-12-11T05:52:22.902Z,47.56
2022-12-11T05:54:51.289Z,48.00
2022-12-11T05:57:19.713Z,48.23
2022-12-11T05:59:48.129Z,48.38
2022-12-11T06:02:16.680Z,48.42
2022-12-11T06:04:45.200Z,47.25
2022-12-11T06:07:13.883Z,47.24
2022-12-11T06:09:42.342Z,47.32
2022-12-11T06:12:10.681Z,47.24
2022-12-11T06:14:39.134Z,47.70
2022-12-11T06:17:07.563Z,47.64
2022-12-11T06:19:37.105Z,47.18
2022-12-11T06:22:05.625Z,47.29
2022-12-11T06:24:34.026Z,47.09
2022-12-11T06:27:02.441Z,46.85
2022-12-11T06:29:30.874Z,46.17
2022-12-11T06:31:59.351Z,47.36
2022-12-11T06:34:28.034Z,47.15
2022-12-11T06:36:56.519Z,45.86
2022-12-11T06:39:24.975Z,46.69
2022-12-11T06:41:54.235Z,46.94
2022-12-11T06:44:22.706Z,47.33
2022-12-11T06:46:51.137Z,46.57
2022-12-11T06:49:19.589Z,47.21
2022-12-11T06:51:48.022Z,46.91
2022-12-11T06:54:16.534Z,47.11
2022-12-11T06:56:45.066Z,46.26
2022-12-11T06:59:13.456Z,46.78
2022-12-11T07:01:41.916Z,47.25
2022-12-11T07:04:10.322Z,46.99
2022-12-11T07:06:39.748Z,46.98
2022-12-11T07:09:08.360Z,47.45
2022-12-11T07:11:36.721Z,46.97
2022-12-11T07:14:06.150Z,46.92
2022-12-11T07:16:34.660Z,46.75
2022-12-11T07:19:03.261Z,46.72
2022-12-11T07:21:32.197Z,47.94
2022-12-11T07:24:00.902Z,47.10
2022-12-11T07:26:29.747Z,46.83
2022-12-11T07:28:59.431Z,46.61
2022-12-11T07:31:29.578Z,45.89
2022-12-11T07:34:01.060Z,46.94
2022-12-11T07:36:29.821Z,46.57
2022-12-11T07:38:59.631Z,46.02
2022-12-11T07:41:28.784Z,46.52
2022-12-11T07:43:59.537Z,46.98
2022-12-11T07:46:29.999Z,46.87
2022-12-11T07:49:00.831Z,46.18
2022-12-11T07:51:35.549Z,47.24
2022-12-11T07:54:10.674Z,47.22
2022-12-11T07:56:41.914Z,47.37
2022-12-11T07:59:12.877Z,47.81
2022-12-11T08:01:42.520Z,47.39
2022-12-11T08:04:12.141Z,47.75
2022-12-11T08:06:42.598Z,47.43
2022-12-11T08:09:20.390Z,47.29
2022-12-11T08:11:50.659Z,47.36
2022-12-11T08:14:20.306Z,47.51
2022-12-11T08:16:48.960Z,46.39
2022-12-11T08:19:18.020Z,46.46
2022-12-11T08:21:46.880Z,47.27
2022-12-11T08:24:20.147Z,46.50
2022-12-11T08:26:48.828Z,46.63
2022-12-11T08:29:17.441Z,46.94
2022-12-11T08:31:45.911Z,47.16
2022-12-11T08:34:14.489Z,46.54
2022-12-11T08:36:43.982Z,46.30
2022-12-11T08:39:12.460Z,46.31
2022-12-11T08:41:41.993Z,46.39
2022-12-11T08:44:16.367Z,46.32
2022-12-11T08:46:45.871Z,46.90
2022-12-11T08:49:14.291Z,46.83
2022-12-11T08:51:42.787Z,46.86
2022-12-11T08:54:11.750Z,47.25
2022-12-11T08:56:40.287Z,46.70
2022-12-11T08:59:08.654Z,46.88
2022-12-11T09:01:37.246Z,46.92
2022-12-11T09:04:05.628Z,46.93
2022-12-11T09:06:34.017Z,47.22
2022-12-11T09:09:04.623Z,46.67
2022-12-11T09:11:35.828Z,47.11
2022-12-11T09:14:07.873Z,46.81
2022-12-11T09:16:40.015Z,46.44
2022-12-11T09:19:17.629Z,47.06
2022-12-11T09:21:46.113Z,47.05
2022-12-11T09:24:15.589Z,47.85
2022-12-11T09:26:44.084Z,47.67
2022-12-11T09:29:13.091Z,46.80
2022-12-11T09:31:42.204Z,46.76
2022-12-11T09:34:13.229Z,46.71
2022-12-11T09:36:44.278Z,47.01
2022-12-11T09:39:15.341Z,47.26
2022-12-11T09:42:18.572Z,47.39
2022-12-11T09:44:51.864Z,47.22
2022-12-11T09:47:32.022Z,46.99
2022-12-11T09:50:03.503Z,47.39
2022-12-11T09:52:37.394Z,46.99
2022-12-11T09:55:19.465Z,46.83
2022-12-11T09:57:56.963Z,47.12
2022-12-11T10:00:47.153Z,47.66
2022-12-11T10:03:34.045Z,46.75
2022-12-11T10:06:24.064Z,47.16
2022-12-11T10:09:19.524Z,47.25
2022-12-11T10:12:27.912Z,47.66
2022-12-11T10:15:26.137Z,47.71
2022-12-11T10:18:04.361Z,47.30
2022-12-11T10:20:39.122Z,46.11
2022-12-11T10:23:10.265Z,46.71
2022-12-11T10:25:48.579Z,46.60
2022-12-11T10:28:19.934Z,46.33
2022-12-11T10:31:10.827Z,46.37
2022-12-11T10:33:41.926Z,46.82
2022-12-11T10:36:13.549Z,46.26
2022-12-11T10:38:45.031Z,46.94
2022-12-11T10:41:24.575Z,46.63
2022-12-11T10:43:53.678Z,46.88
2022-12-11T10:46:23.566Z,46.44
2022-12-11T10:48:55.381Z,46.45
2022-12-11T10:51:44.195Z,45.71
2022-12-11T10:54:33.748Z,46.44
2022-12-11T10:57:04.592Z,46.24
2022-12-11T10:59:40.619Z,46.44
2022-12-11T11:02:18.486Z,45.94
2022-12-11T11:04:47.483Z,46.81
2022-12-11T11:07:22.153Z,46.34
2022-12-11T11:10:03.686Z,46.12
2022-12-11T11:12:47.090Z,46.81
2022-12-11T11:15:28.495Z,46.68
2022-12-11T11:18:03.196Z,46.59
2022-12-11T11:20:34.239Z,46.74
2022-12-11T11:23:14.120Z,47.09
2022-12-11T11:25:51.994Z,46.87
2022-12-11T11:28:25.055Z,47.10
2022-12-11T11:31:01.541Z,47.44
2022-12-11T11:33:32.918Z,45.88
2022-12-11T11:36:07.464Z,45.81
2022-12-11T11:38:40.961Z,46.42
2022-12-11T11:41:19.908Z,45.47
2022-12-11T11:43:53.063Z,46.25
2022-12-11T11:46:35.063Z,46.47
2022-12-11T11:49:06.780Z,46.71
2022-12-11T11:51:43.109Z,46.62
2022-12-11T11:54:25.658Z,46.00
2022-12-11T11:56:56.261Z,46.09
2022-12-11T11:59:36.201Z,45.48
2022-12-11T12:02:14.808Z,45.22
2022-12-11T12:04:45.028Z,45.92
2022-12-11T12:07:44.509Z,45.66
2022-12-11T12:10:33.056Z,45.00
2022-12-11T12:13:23.838Z,45.79
2022-12-11T12:15:58.604Z,46.19
2022-12-11T12:18:51.811Z,46.19
2022-12-11T12:21:36.483Z,46.32
2022-12-11T12:24:10.955Z,45.01
2022-12-11T12:26:44.566Z,45.67
2022-12-11T12:29:26.959Z,44.76
2022-12-11T12:32:13.628Z,45.68
2022-12-11T12:35:04.730Z,45.44
2022-12-11T12:38:14.695Z,45.53
2022-12-11T12:41:14.030Z,45.49
2022-12-11T12:44:19.130Z,45.68
2022-12-11T12:47:12.279Z,45.55
2022-12-11T12:49:42.942Z,44.80
2022-12-11T12:52:23.108Z,45.04
2022-12-11T12:55:14.087Z,45.42
2022-12-11T12:57:49.177Z,45.66
2022-12-11T13:00:43.994Z,44.97
2022-12-11T13:03:16.541Z,44.88
2022-12-11T13:05:56.509Z,44.53
2022-12-11T13:08:28.459Z,45.49
2022-12-11T13:11:02.434Z,45.31
2022-12-11T13:13:43.922Z,45.04
2022-12-11T13:16:15.305Z,45.16
2022-12-11T13:18:47.467Z,45.27
2022-12-11T13:21:30.902Z,45.12
2022-12-11T13:24:27.087Z,45.44
2022-12-11T13:26:56.863Z,45.92
2022-12-11T13:29:37.404Z,45.14
2022-12-11T13:32:23.899Z,45.15
2022-12-11T13:35:04.047Z,45.37
2022-12-11T13:37:38.346Z,45.62
2022-12-11T13:40:15.343Z,44.82
2022-12-11T13:42:57.371Z,45.49
2022-12-11T13:45:46.573Z,45.65
2022-12-11T13:48:32.014Z,45.20
2022-12-11T13:51:01.524Z,44.69
2022-12-11T13:53:29.944Z,45.63
2022-12-11T13:56:04.022Z,44.82
2022-12-11T13:58:38.522Z,44.88
2022-12-11T14:01:12.504Z,44.81
2022-12-11T14:03:53.576Z,45.35
2022-12-11T14:06:23.649Z,44.78
2022-12-11T14:08:55.278Z,45.14
2022-12-11T14:11:28.009Z,44.06
2022-12-11T14:13:59.741Z,44.94
2022-12-11T14:16:29.926Z,45.19
2022-12-11T14:19:05.262Z,44.88
2022-12-11T14:21:34.206Z,45.66
2022-12-11T14:24:06.455Z,46.17
2022-12-11T14:26:38.630Z,45.89
2022-12-11T14:29:07.246Z,46.10
2022-12-11T14:31:39.592Z,45.98
2022-12-11T14:34:32.258Z,45.57
2022-12-11T14:37:02.696Z,45.15
2022-12-11T14:39:37.613Z,44.91
2022-12-11T14:42:23.298Z,45.34
2022-12-11T14:44:51.657Z,45.24
2022-12-11T14:47:24.479Z,45.70
2022-12-11T14:50:13.173Z,45.63
2022-12-11T14:52:54.281Z,45.17
2022-12-11T14:55:26.869Z,45.62
2022-12-11T14:57:59.062Z,45.76
2022-12-11T15:00:28.970Z,45.58
2022-12-11T15:03:23.767Z,45.28
2022-12-11T15:05:55.242Z,45.92
2022-12-11T15:08:34.311Z,45.38
2022-12-11T15:11:11.786Z,45.79
2022-12-11T15:13:52.727Z,45.58
2022-12-11T15:16:23.940Z,45.54
2022-12-11T15:18:54.547Z,45.05
2022-12-11T15:21:35.417Z,45.28
2022-12-11T15:24:06.010Z,45.17
2022-12-11T15:26:35.984Z,45.22
2022-12-11T15:29:27.059Z,45.33
2022-12-11T15:32:04.179Z,45.53
2022-12-11T15:34:34.918Z,45.49
2022-12-11T15:37:04.429Z,45.30
2022-12-11T15:39:32.785Z,44.93
2022-12-11T15:42:01.367Z,45.11
2022-12-11T15:44:29.787Z,45.51
2022-12-11T15:46:58.151Z,45.25
2022-12-11T15:49:26.560Z,45.29
2022-12-11T15:51:54.956Z,45.34
2022-12-11T15:54:23.432Z,45.62
2022-12-11T15:56:51.821Z,45.77
2022-12-11T15:59:20.440Z,45.15
2022-12-11T16:01:49.255Z,45.40
2022-12-11T16:04:17.713Z,45.66
2022-12-11T16:06:46.894Z,44.99
2022-12-11T16:09:15.307Z,44.69
2022-12-11T16:11:43.782Z,44.51
2022-12-11T16:14:12.151Z,44.05
2022-12-11T16:16:40.487Z,44.27
2022-12-11T16:19:08.891Z,44.47
2022-12-11T16:21:37.460Z,44.92
2022-12-11T16:24:06.228Z,44.98
2022-12-11T16:26:34.714Z,44.52
2022-12-11T16:29:03.144Z,44.56
2022-12-11T16:31:31.642Z,44.84
2022-12-11T16:34:00.024Z,44.77
2022-12-11T16:36:28.661Z,45.09
2022-12-11T16:38:59.987Z,45.61
2022-12-11T16:41:28.370Z,44.97
2022-12-11T16:43:56.811Z,45.19
2022-12-11T16:46:25.626Z,45.33
2022-12-11T16:48:54.005Z,45.45
2022-12-11T16:51:22.591Z,45.04
2022-12-11T16:53:51.013Z,45.51
2022-12-11T16:56:19.497Z,45.22
2022-12-11T16:58:48.258Z,45.63
2022-12-11T17:01:17.826Z,45.50
2022-12-11T17:03:46.643Z,45.00
2022-12-11T17:06:17.561Z,45.57
2022-12-11T17:08:46.610Z,45.32
2022-12-11T17:11:17.754Z,45.54
2022-12-11T17:13:46.173Z,45.79
2022-12-11T17:16:16.702Z,45.77
2022-12-11T17:18:46.183Z,44.88
2022-12-11T17:21:17.314Z,45.58
2022-12-11T17:23:46.730Z,45.52
2022-12-11T17:26:16.435Z,45.14
2022-12-11T17:28:45.141Z,45.21
2022-12-11T17:31:16.652Z,45.35
2022-12-11T17:33:46.652Z,45.79
2022-12-11T17:36:20.809Z,45.79
2022-12-11T17:38:50.036Z,45.85
2022-12-11T17:41:21.161Z,46.04
2022-12-11T17:43:51.868Z,46.07
2022-12-11T17:46:20.701Z,45.90
2022-12-11T17:48:49.663Z,46.28
2022-12-11T17:51:23.951Z,46.04
2022-12-11T17:53:55.655Z,45.54
2022-12-11T17:56:24.178Z,45.48
2022-12-11T17:58:52.796Z,45.44
2022-12-11T18:01:21.469Z,45.58
2022-12-11T18:03:50.054Z,45.89
2022-12-11T18:06:18.543Z,45.71
2022-12-11T18:08:46.949Z,45.92
2022-12-11T18:11:18.503Z,45.94
2022-12-11T18:13:48.309Z,46.03
2022-12-11T18:16:20.283Z,46.11
2022-12-11T18:18:50.452Z,45.99
2022-12-11T18:21:25.261Z,45.81
2022-12-11T18:23:53.903Z,46.25
2022-12-11T18:26:22.609Z,46.12
2022-12-11T18:28:52.132Z,45.69
2022-12-11T18:31:22.241Z,45.86
2022-12-11T18:33:51.415Z,46.12
2022-12-11T18:36:21.233Z,45.77
2022-12-11T18:38:49.857Z,46.17
2022-12-11T18:41:19.958Z,46.14
2022-12-11T18:43:48.483Z,45.96
2022-12-11T18:46:20.628Z,46.25
2022-12-11T18:48:49.458Z,45.80
2022-12-11T18:51:23.691Z,46.11
2022-12-11T18:53:52.826Z,46.37
2022-12-11T18:56:21.987Z,46.13
2022-12-11T18:58:50.860Z,45.96
2022-12-11T19:01:26.402Z,46.21
2022-12-11T19:04:02.015Z,46.37
2022-12-11T19:06:33.272Z,46.30
2022-12-11T19:09:03.712Z,46.25
2022-12-11T19:11:33.424Z,46.35
2022-12-11T19:14:02.217Z,46.20
2022-12-11T19:16:34.888Z,46.30
2022-12-11T19:19:07.083Z,46.31
2022-12-11T19:21:37.519Z,45.93
2022-12-11T19:24:08.435Z,46.11
2022-12-11T19:26:37.035Z,46.21
2022-12-11T19:29:06.259Z,46.12
2022-12-11T19:31:35.019Z,46.43
2022-12-11T19:34:03.472Z,46.51
2022-12-11T19:36:33.628Z,46.30
2022-12-11T19:39:04.272Z,46.45
2022-12-11T19:41:36.853Z,46.48
2022-12-11T19:44:05.402Z,46.57
2022-12-11T19:46:34.253Z,46.57
2022-12-11T19:49:02.829Z,46.66
2022-12-11T19:51:34.285Z,46.79
2022-12-11T19:54:04.584Z,46.72
2022-12-11T19:56:34.317Z,46.56
2022-12-11T19:59:05.131Z,46.78
2022-12-11T20:01:36.400Z,46.82
2022-12-11T20:04:07.850Z,46.76
2022-12-11T20:06:39.332Z,46.64
2022-12-11T20:09:12.706Z,46.74
2022-12-11T20:11:43.558Z,46.71
2022-12-11T20:14:22.600Z,46.57
2022-12-11T20:17:10.501Z,46.82
2022-12-11T20:19:40.869Z,46.72
2022-12-11T20:22:09.480Z,46.61
2022-12-11T20:24:37.935Z,46.59
2022-12-11T20:27:06.392Z,46.05
2022-12-11T20:29:34.878Z,46.45
2022-12-11T20:32:03.298Z,46.41
2022-12-11T20:34:31.803Z,46.54
2022-12-11T20:37:00.307Z,46.46
2022-12-11T20:39:29.213Z,46.37
2022-12-11T20:41:57.641Z,46.58
2022-12-11T20:44:26.045Z,46.73
2022-12-11T20:46:54.650Z,46.77
2022-12-11T20:49:23.091Z,46.32
2022-12-11T20:51:52.016Z,46.48
2022-12-11T20:54:20.453Z,46.17
2022-12-11T20:56:48.916Z,46.17
2022-12-11T20:59:17.856Z,46.41
2022-12-11T21:01:46.409Z,46.40
2022-12-11T21:04:15.408Z,46.51
2022-12-11T21:06:43.833Z,46.49
2022-12-11T21:09:15.017Z,46.65
2022-12-11T21:11:43.990Z,46.47
2022-12-11T21:14:13.122Z,46.93
2022-12-11T21:16:42.167Z,46.94
2022-12-11T21:19:16.654Z,46.98
2022-12-11T21:21:46.372Z,46.66
2022-12-11T21:24:23.541Z,46.92
2022-12-11T21:26:55.277Z,46.91
2022-12-11T21:29:26.206Z,46.35
2022-12-11T21:31:55.104Z,46.71
2022-12-11T21:34:25.587Z,46.75
2022-12-11T21:36:56.768Z,46.72
2022-12-11T21:39:28.164Z,46.72
2022-12-11T21:41:58.072Z,46.94
2022-12-11T21:47:16.033Z,46.67
2022-12-11T21:49:44.457Z,46.11
2022-12-11T21:52:13.951Z,46.42
2022-12-11T21:54:42.613Z,46.31
2022-12-11T21:57:11.053Z,46.66
2022-12-11T21:59:39.402Z,46.50
2022-12-11T22:02:07.820Z,46.24
2022-12-11T22:04:37.379Z,46.43
2022-12-11T22:07:05.916Z,46.33
2022-12-11T22:09:34.372Z,46.39
2022-12-11T22:12:02.899Z,46.60
2022-12-11T22:14:31.403Z,46.31
2022-12-11T22:16:59.898Z,46.43
2022-12-11T22:19:32.532Z,45.96
2022-12-11T22:22:01.317Z,46.04
2022-12-11T22:24:31.166Z,45.63
2022-12-11T22:26:59.752Z,45.87
2022-12-11T22:29:28.326Z,45.83
2022-12-11T22:31:56.955Z,45.55
2022-12-11T22:34:25.495Z,45.24
2022-12-11T22:36:54.197Z,46.12
2022-12-11T22:39:22.952Z,45.76
2022-12-11T22:41:51.410Z,45.70
2022-12-11T22:44:21.347Z,45.46
2022-12-11T22:46:50.675Z,45.75
2022-12-11T22:49:19.814Z,45.96
2022-12-11T22:51:49.133Z,45.73
2022-12-11T22:54:17.655Z,45.47
2022-12-11T22:56:46.078Z,46.15
2022-12-11T22:59:15.197Z,45.74
2022-12-11T23:01:43.899Z,45.67
2022-12-11T23:04:12.493Z,45.48
2022-12-11T23:06:41.298Z,45.04
2022-12-11T23:09:11.190Z,45.08
2022-12-11T23:11:40.097Z,45.39
2022-12-11T23:14:13.954Z,45.18
2022-12-11T23:16:43.545Z,45.25
2022-12-11T23:19:12.179Z,45.23
2022-12-11T23:21:41.015Z,45.01
2022-12-11T23:24:10.320Z,45.04
2022-12-11T23:26:39.131Z,45.25
2022-12-11T23:29:07.650Z,45.62
2022-12-11T23:31:36.304Z,46.11
2022-12-11T23:34:04.844Z,46.08
2022-12-11T23:36:33.434Z,45.82
2022-12-11T23:39:02.103Z,46.14
2022-12-11T23:41:30.759Z,45.68
2022-12-11T23:43:59.168Z,46.05
2022-12-11T23:46:27.737Z,45.64
2022-12-11T23:48:56.359Z,45.25
2022-12-11T23:51:25.844Z,44.93
2022-12-11T23:53:54.720Z,45.58
2022-12-11T23:56:26.331Z,45.81
2022-12-11T23:58:55.606Z,45.37
